sensor_id;sensor_type;location;lat;lon;timestamp;P1;durP1;ratioP1;P2;durP2;ratioP2
46014;SDS011;36844;51.898;-0.874;2023-07-31T00:00:12;3.22;;;1.98;;
46014;SDS011;36844;51.898;-0.874;2023-07-31T00:02:38;2.22;;;1.50;;
46014;SDS011;36844;51.898;-0.874;2023-07-31T00:05:03;2.92;;;1.60;;
46014;SDS011;36844;51.898;-0.874;2023-07-31T00:07:29;2.22;;;1.58;;
46014;SDS011;36844;51.898;-0.874;2023-07-31T00:09:54;2.85;;;1.83;;
46014;SDS011;36844;51.898;-0.874;2023-07-31T00:12:21;3.10;;;1.73;;
46014;SDS011;36844;51.898;-0.874;2023-07-31T00:14:47;3.75;;;1.90;;
46014;SDS011;36844;51.898;-0.874;2023-07-31T00:17:12;8.10;;;2.33;;
46014;SDS011;36844;51.898;-0.874;2023-07-31T00:19:37;2.47;;;1.50;;
46014;SDS011;36844;51.898;-0.874;2023-07-31T00:22:03;3.80;;;2.08;;
46014;SDS011;36844;51.898;-0.874;2023-07-31T00:24:28;4.55;;;2.03;;
46014;SDS011;36844;51.898;-0.874;2023-07-31T00:26:54;2.42;;;1.45;;
46014;SDS011;36844;51.898;-0.874;2023-07-31T00:29:19;4.68;;;1.25;;
46014;SDS011;36844;51.898;-0.874;2023-07-31T00:31:44;2.70;;;1.35;;
46014;SDS011;36844;51.898;-0.874;2023-07-31T00:34:10;2.42;;;1.40;;
46014;SDS011;36844;51.898;-0.874;2023-07-31T00:36:35;1.90;;;1.38;;
46014;SDS011;36844;51.898;-0.874;2023-07-31T00:39:00;2.88;;;1.63;;
46014;SDS011;36844;51.898;-0.874;2023-07-31T00:41:26;1.42;;;1.17;;
46014;SDS011;36844;51.898;-0.874;2023-07-31T00:43:51;3.58;;;1.77;;
46014;SDS011;36844;51.898;-0.874;2023-07-31T00:46:16;1.75;;;1.20;;
46014;SDS011;36844;51.898;-0.874;2023-07-31T00:48:42;2.80;;;1.80;;
46014;SDS011;36844;51.898;-0.874;2023-07-31T00:51:07;2.58;;;1.63;;
46014;SDS011;36844;51.898;-0.874;2023-07-31T00:53:33;3.42;;;1.10;;
46014;SDS011;36844;51.898;-0.874;2023-07-31T00:55:59;1.90;;;1.23;;
46014;SDS011;36844;51.898;-0.874;2023-07-31T00:58:24;2.92;;;1.33;;
46014;SDS011;36844;51.898;-0.874;2023-07-31T01:00:50;1.95;;;1.27;;
46014;SDS011;36844;51.898;-0.874;2023-07-31T01:03:15;2.17;;;1.20;;
46014;SDS011;36844;51.898;-0.874;2023-07-31T01:06:02;1.88;;;1.33;;
46014;SDS011;36844;51.898;-0.874;2023-07-31T01:08:43;1.88;;;1.10;;
46014;SDS011;36844;51.898;-0.874;2023-07-31T01:11:28;1.38;;;0.77;;
46014;SDS011;36844;51.898;-0.874;2023-07-31T01:13:55;3.22;;;1.33;;
46014;SDS011;36844;51.898;-0.874;2023-07-31T01:16:21;4.00;;;1.45;;
46014;SDS011;36844;51.898;-0.874;2023-07-31T01:18:46;1.60;;;1.00;;
46014;SDS011;36844;51.898;-0.874;2023-07-31T01:26:42;2.47;;;1.40;;
46014;SDS011;36844;51.898;-0.874;2023-07-31T01:31:46;1.63;;;1.15;;
46014;SDS011;36844;51.898;-0.874;2023-07-31T01:34:14;1.90;;;1.00;;
46014;SDS011;36844;51.898;-0.874;2023-07-31T01:36:42;0.88;;;0.70;;
46014;SDS011;36844;51.898;-0.874;2023-07-31T01:39:08;1.52;;;0.70;;
46014;SDS011;36844;51.898;-0.874;2023-07-31T01:41:34;2.25;;;0.80;;
46014;SDS011;36844;51.898;-0.874;2023-07-31T01:43:59;2.08;;;0.82;;
46014;SDS011;36844;51.898;-0.874;2023-07-31T01:46:25;1.30;;;0.80;;
46014;SDS011;36844;51.898;-0.874;2023-07-31T01:48:50;1.27;;;1.02;;
46014;SDS011;36844;51.898;-0.874;2023-07-31T01:51:15;1.58;;;0.90;;
46014;SDS011;36844;51.898;-0.874;2023-07-31T01:53:41;1.17;;;0.90;;
46014;SDS011;36844;51.898;-0.874;2023-07-31T01:56:06;1.85;;;0.98;;
46014;SDS011;36844;51.898;-0.874;2023-07-31T01:58:31;2.63;;;1.08;;
46014;SDS011;36844;51.898;-0.874;2023-07-31T02:00:57;0.93;;;0.88;;
46014;SDS011;36844;51.898;-0.874;2023-07-31T02:03:22;0.82;;;0.60;;
46014;SDS011;36844;51.898;-0.874;2023-07-31T02:05:48;3.20;;;1.45;;
46014;SDS011;36844;51.898;-0.874;2023-07-31T02:08:14;1.90;;;0.93;;
46014;SDS011;36844;51.898;-0.874;2023-07-31T02:10:40;1.52;;;0.80;;
46014;SDS011;36844;51.898;-0.874;2023-07-31T02:13:06;3.75;;;1.20;;
46014;SDS011;36844;51.898;-0.874;2023-07-31T02:15:31;0.88;;;0.80;;
46014;SDS011;36844;51.898;-0.874;2023-07-31T02:17:57;1.75;;;0.77;;
46014;SDS011;36844;51.898;-0.874;2023-07-31T02:20:22;1.33;;;0.80;;
46014;SDS011;36844;51.898;-0.874;2023-07-31T02:22:48;1.52;;;0.70;;
46014;SDS011;36844;51.898;-0.874;2023-07-31T02:25:13;1.00;;;0.63;;
46014;SDS011;36844;51.898;-0.874;2023-07-31T02:27:38;1.83;;;1.00;;
46014;SDS011;36844;51.898;-0.874;2023-07-31T02:30:04;0.75;;;0.68;;
46014;SDS011;36844;51.898;-0.874;2023-07-31T02:32:30;1.45;;;0.80;;
46014;SDS011;36844;51.898;-0.874;2023-07-31T02:34:55;0.88;;;0.70;;
46014;SDS011;36844;51.898;-0.874;2023-07-31T02:37:20;1.08;;;0.68;;
46014;SDS011;36844;51.898;-0.874;2023-07-31T02:39:45;1.35;;;1.08;;
46014;SDS011;36844;51.898;-0.874;2023-07-31T02:42:11;0.82;;;0.52;;
46014;SDS011;36844;51.898;-0.874;2023-07-31T02:44:37;0.93;;;0.55;;
46014;SDS011;36844;51.898;-0.874;2023-07-31T02:47:03;0.68;;;0.52;;
46014;SDS011;36844;51.898;-0.874;2023-07-31T02:49:28;0.80;;;0.73;;
46014;SDS011;36844;51.898;-0.874;2023-07-31T02:51:53;1.35;;;0.70;;
46014;SDS011;36844;51.898;-0.874;2023-07-31T02:54:19;1.48;;;0.80;;
46014;SDS011;36844;51.898;-0.874;2023-07-31T02:56:46;1.02;;;0.63;;
46014;SDS011;36844;51.898;-0.874;2023-07-31T02:59:12;1.58;;;0.60;;
46014;SDS011;36844;51.898;-0.874;2023-07-31T03:01:37;0.98;;;0.50;;
46014;SDS011;36844;51.898;-0.874;2023-07-31T03:04:03;0.95;;;0.68;;
46014;SDS011;36844;51.898;-0.874;2023-07-31T03:06:28;0.82;;;0.73;;
46014;SDS011;36844;51.898;-0.874;2023-07-31T03:08:54;1.55;;;0.68;;
46014;SDS011;36844;51.898;-0.874;2023-07-31T03:11:19;0.50;;;0.43;;
46014;SDS011;36844;51.898;-0.874;2023-07-31T03:13:44;0.98;;;0.73;;
46014;SDS011;36844;51.898;-0.874;2023-07-31T03:16:09;2.58;;;0.90;;
46014;SDS011;36844;51.898;-0.874;2023-07-31T03:18:35;3.25;;;0.57;;
46014;SDS011;36844;51.898;-0.874;2023-07-31T03:21:00;0.68;;;0.50;;
46014;SDS011;36844;51.898;-0.874;2023-07-31T03:23:25;1.02;;;0.60;;
46014;SDS011;36844;51.898;-0.874;2023-07-31T03:28:26;0.63;;;0.52;;
46014;SDS011;36844;51.898;-0.874;2023-07-31T03:30:52;0.93;;;0.52;;
46014;SDS011;36844;51.898;-0.874;2023-07-31T03:33:18;0.73;;;0.40;;
46014;SDS011;36844;51.898;-0.874;2023-07-31T03:35:44;0.82;;;0.65;;
46014;SDS011;36844;51.898;-0.874;2023-07-31T03:38:09;2.28;;;0.55;;
46014;SDS011;36844;51.898;-0.874;2023-07-31T03:40:35;1.05;;;0.55;;
46014;SDS011;36844;51.898;-0.874;2023-07-31T03:43:00;1.17;;;0.60;;
46014;SDS011;36844;51.898;-0.874;2023-07-31T03:45:25;1.95;;;0.80;;
46014;SDS011;36844;51.898;-0.874;2023-07-31T03:47:50;0.73;;;0.68;;
46014;SDS011;36844;51.898;-0.874;2023-07-31T03:50:16;0.65;;;0.57;;
46014;SDS011;36844;51.898;-0.874;2023-07-31T03:52:41;1.42;;;0.70;;
46014;SDS011;36844;51.898;-0.874;2023-07-31T03:55:06;0.75;;;0.45;;
46014;SDS011;36844;51.898;-0.874;2023-07-31T03:57:32;0.82;;;0.57;;
46014;SDS011;36844;51.898;-0.874;2023-07-31T03:59:57;0.30;;;0.30;;
46014;SDS011;36844;51.898;-0.874;2023-07-31T04:02:23;0.82;;;0.50;;
46014;SDS011;36844;51.898;-0.874;2023-07-31T04:04:48;0.82;;;0.55;;
46014;SDS011;36844;51.898;-0.874;2023-07-31T04:07:14;1.05;;;0.57;;
46014;SDS011;36844;51.898;-0.874;2023-07-31T04:09:39;0.60;;;0.38;;
46014;SDS011;36844;51.898;-0.874;2023-07-31T04:12:04;0.80;;;0.40;;
46014;SDS011;36844;51.898;-0.874;2023-07-31T04:14:31;1.15;;;0.50;;
46014;SDS011;36844;51.898;-0.874;2023-07-31T04:16:56;0.50;;;0.35;;
46014;SDS011;36844;51.898;-0.874;2023-07-31T04:19:21;1.95;;;0.73;;
46014;SDS011;36844;51.898;-0.874;2023-07-31T04:21:47;3.63;;;0.98;;
46014;SDS011;36844;51.898;-0.874;2023-07-31T04:24:12;0.73;;;0.60;;
46014;SDS011;36844;51.898;-0.874;2023-07-31T04:26:37;0.40;;;0.40;;
46014;SDS011;36844;51.898;-0.874;2023-07-31T04:29:03;0.47;;;0.47;;
46014;SDS011;36844;51.898;-0.874;2023-07-31T04:31:28;0.60;;;0.50;;
46014;SDS011;36844;51.898;-0.874;2023-07-31T04:33:53;0.30;;;0.30;;
46014;SDS011;36844;51.898;-0.874;2023-07-31T04:36:18;0.43;;;0.43;;
46014;SDS011;36844;51.898;-0.874;2023-07-31T04:38:44;1.27;;;0.38;;
46014;SDS011;36844;51.898;-0.874;2023-07-31T04:41:09;1.65;;;0.90;;
46014;SDS011;36844;51.898;-0.874;2023-07-31T04:43:34;0.57;;;0.57;;
46014;SDS011;36844;51.898;-0.874;2023-07-31T04:46:00;1.48;;;0.63;;
46014;SDS011;36844;51.898;-0.874;2023-07-31T04:48:25;0.70;;;0.50;;
46014;SDS011;36844;51.898;-0.874;2023-07-31T04:50:50;1.08;;;0.55;;
46014;SDS011;36844;51.898;-0.874;2023-07-31T04:53:15;1.40;;;0.55;;
46014;SDS011;36844;51.898;-0.874;2023-07-31T04:55:41;1.42;;;0.70;;
46014;SDS011;36844;51.898;-0.874;2023-07-31T04:58:06;0.60;;;0.40;;
46014;SDS011;36844;51.898;-0.874;2023-07-31T05:00:31;0.70;;;0.43;;
46014;SDS011;36844;51.898;-0.874;2023-07-31T05:02:57;0.85;;;0.40;;
46014;SDS011;36844;51.898;-0.874;2023-07-31T05:05:22;0.60;;;0.45;;
46014;SDS011;36844;51.898;-0.874;2023-07-31T05:07:47;0.63;;;0.43;;
46014;SDS011;36844;51.898;-0.874;2023-07-31T05:10:13;0.93;;;0.40;;
46014;SDS011;36844;51.898;-0.874;2023-07-31T05:12:38;0.45;;;0.32;;
46014;SDS011;36844;51.898;-0.874;2023-07-31T05:15:04;1.83;;;0.50;;
46014;SDS011;36844;51.898;-0.874;2023-07-31T05:17:29;0.85;;;0.45;;
46014;SDS011;36844;51.898;-0.874;2023-07-31T05:19:55;1.17;;;0.30;;
46014;SDS011;36844;51.898;-0.874;2023-07-31T05:22:20;0.43;;;0.43;;
46014;SDS011;36844;51.898;-0.874;2023-07-31T05:24:45;0.38;;;0.30;;
46014;SDS011;36844;51.898;-0.874;2023-07-31T05:27:11;0.98;;;0.35;;
46014;SDS011;36844;51.898;-0.874;2023-07-31T05:29:37;1.02;;;0.30;;
46014;SDS011;36844;51.898;-0.874;2023-07-31T05:32:02;0.43;;;0.32;;
46014;SDS011;36844;51.898;-0.874;2023-07-31T05:34:28;0.45;;;0.28;;
46014;SDS011;36844;51.898;-0.874;2023-07-31T05:36:53;0.90;;;0.68;;
46014;SDS011;36844;51.898;-0.874;2023-07-31T05:39:18;1.00;;;0.40;;
46014;SDS011;36844;51.898;-0.874;2023-07-31T05:41:44;0.95;;;0.45;;
46014;SDS011;36844;51.898;-0.874;2023-07-31T05:44:10;2.72;;;0.80;;
46014;SDS011;36844;51.898;-0.874;2023-07-31T05:46:35;0.95;;;0.40;;
46014;SDS011;36844;51.898;-0.874;2023-07-31T05:49:01;0.55;;;0.28;;
46014;SDS011;36844;51.898;-0.874;2023-07-31T05:51:26;1.00;;;0.50;;
46014;SDS011;36844;51.898;-0.874;2023-07-31T05:53:52;0.73;;;0.50;;
46014;SDS011;36844;51.898;-0.874;2023-07-31T05:56:18;2.97;;;0.50;;
46014;SDS011;36844;51.898;-0.874;2023-07-31T05:58:43;1.92;;;1.15;;
46014;SDS011;36844;51.898;-0.874;2023-07-31T06:01:08;2.70;;;0.90;;
46014;SDS011;36844;51.898;-0.874;2023-07-31T06:03:34;3.17;;;1.38;;
46014;SDS011;36844;51.898;-0.874;2023-07-31T06:05:59;2.97;;;1.15;;
46014;SDS011;36844;51.898;-0.874;2023-07-31T06:08:24;1.40;;;1.00;;
46014;SDS011;36844;51.898;-0.874;2023-07-31T06:10:50;1.30;;;0.80;;
46014;SDS011;36844;51.898;-0.874;2023-07-31T06:13:15;1.73;;;0.82;;
46014;SDS011;36844;51.898;-0.874;2023-07-31T06:15:40;1.83;;;1.00;;
46014;SDS011;36844;51.898;-0.874;2023-07-31T06:18:06;2.08;;;1.00;;
46014;SDS011;36844;51.898;-0.874;2023-07-31T06:20:33;2.38;;;1.10;;
46014;SDS011;36844;51.898;-0.874;2023-07-31T06:22:59;1.20;;;0.88;;
46014;SDS011;36844;51.898;-0.874;2023-07-31T06:25:24;3.40;;;1.40;;
46014;SDS011;36844;51.898;-0.874;2023-07-31T06:27:49;3.55;;;1.40;;
46014;SDS011;36844;51.898;-0.874;2023-07-31T06:30:15;1.45;;;1.00;;
46014;SDS011;36844;51.898;-0.874;2023-07-31T06:32:40;1.40;;;0.98;;
46014;SDS011;36844;51.898;-0.874;2023-07-31T06:35:06;1.20;;;0.88;;
46014;SDS011;36844;51.898;-0.874;2023-07-31T06:37:31;1.90;;;1.50;;
46014;SDS011;36844;51.898;-0.874;2023-07-31T06:39:57;5.10;;;1.88;;
46014;SDS011;36844;51.898;-0.874;2023-07-31T06:42:22;2.42;;;1.70;;
46014;SDS011;36844;51.898;-0.874;2023-07-31T06:44:47;1.65;;;1.27;;
46014;SDS011;36844;51.898;-0.874;2023-07-31T06:47:13;3.55;;;1.98;;
46014;SDS011;36844;51.898;-0.874;2023-07-31T06:49:38;1.65;;;1.40;;
46014;SDS011;36844;51.898;-0.874;2023-07-31T06:52:03;3.08;;;1.90;;
46014;SDS011;36844;51.898;-0.874;2023-07-31T06:54:29;5.00;;;2.00;;
46014;SDS011;36844;51.898;-0.874;2023-07-31T06:56:54;6.43;;;2.00;;
46014;SDS011;36844;51.898;-0.874;2023-07-31T06:59:19;3.83;;;2.08;;
46014;SDS011;36844;51.898;-0.874;2023-07-31T07:01:45;3.85;;;2.13;;
46014;SDS011;36844;51.898;-0.874;2023-07-31T07:04:10;5.00;;;2.00;;
46014;SDS011;36844;51.898;-0.874;2023-07-31T07:06:35;4.10;;;2.05;;
46014;SDS011;36844;51.898;-0.874;2023-07-31T07:09:01;3.75;;;2.65;;
46014;SDS011;36844;51.898;-0.874;2023-07-31T07:11:26;4.93;;;2.05;;
46014;SDS011;36844;51.898;-0.874;2023-07-31T07:13:52;4.18;;;1.92;;
46014;SDS011;36844;51.898;-0.874;2023-07-31T07:16:17;2.53;;;1.67;;
46014;SDS011;36844;51.898;-0.874;2023-07-31T07:18:42;2.78;;;1.88;;
46014;SDS011;36844;51.898;-0.874;2023-07-31T07:21:08;3.55;;;1.80;;
46014;SDS011;36844;51.898;-0.874;2023-07-31T07:23:33;4.07;;;2.15;;
46014;SDS011;36844;51.898;-0.874;2023-07-31T07:25:59;2.85;;;1.75;;
46014;SDS011;36844;51.898;-0.874;2023-07-31T07:28:24;3.60;;;2.40;;
46014;SDS011;36844;51.898;-0.874;2023-07-31T07:30:52;2.53;;;1.80;;
46014;SDS011;36844;51.898;-0.874;2023-07-31T07:33:18;3.40;;;2.15;;
46014;SDS011;36844;51.898;-0.874;2023-07-31T07:35:44;3.75;;;2.03;;
46014;SDS011;36844;51.898;-0.874;2023-07-31T07:38:09;3.08;;;1.92;;
46014;SDS011;36844;51.898;-0.874;2023-07-31T07:40:38;2.40;;;1.98;;
46014;SDS011;36844;51.898;-0.874;2023-07-31T07:43:06;2.40;;;1.50;;
46014;SDS011;36844;51.898;-0.874;2023-07-31T07:45:32;3.28;;;2.05;;
46014;SDS011;36844;51.898;-0.874;2023-07-31T07:47:57;2.80;;;1.77;;
46014;SDS011;36844;51.898;-0.874;2023-07-31T07:50:24;3.83;;;2.03;;
46014;SDS011;36844;51.898;-0.874;2023-07-31T07:52:49;3.90;;;2.30;;
46014;SDS011;36844;51.898;-0.874;2023-07-31T07:55:14;4.00;;;2.03;;
46014;SDS011;36844;51.898;-0.874;2023-07-31T07:57:40;7.70;;;2.58;;
46014;SDS011;36844;51.898;-0.874;2023-07-31T08:00:05;6.05;;;2.30;;
46014;SDS011;36844;51.898;-0.874;2023-07-31T08:02:31;2.30;;;1.52;;
46014;SDS011;36844;51.898;-0.874;2023-07-31T08:04:56;3.22;;;1.98;;
46014;SDS011;36844;51.898;-0.874;2023-07-31T08:07:22;4.25;;;2.58;;
46014;SDS011;36844;51.898;-0.874;2023-07-31T08:09:47;2.95;;;1.90;;
46014;SDS011;36844;51.898;-0.874;2023-07-31T08:12:12;2.65;;;1.98;;
46014;SDS011;36844;51.898;-0.874;2023-07-31T08:14:38;3.08;;;1.80;;
46014;SDS011;36844;51.898;-0.874;2023-07-31T08:17:03;4.15;;;2.00;;
46014;SDS011;36844;51.898;-0.874;2023-07-31T08:19:29;3.67;;;1.88;;
46014;SDS011;36844;51.898;-0.874;2023-07-31T08:21:54;4.05;;;2.13;;
46014;SDS011;36844;51.898;-0.874;2023-07-31T08:24:20;4.43;;;1.90;;
46014;SDS011;36844;51.898;-0.874;2023-07-31T08:26:45;4.90;;;2.63;;
46014;SDS011;36844;51.898;-0.874;2023-07-31T08:29:10;3.80;;;1.80;;
46014;SDS011;36844;51.898;-0.874;2023-07-31T08:31:36;3.65;;;2.17;;
46014;SDS011;36844;51.898;-0.874;2023-07-31T08:34:01;2.45;;;1.90;;
46014;SDS011;36844;51.898;-0.874;2023-07-31T08:36:26;3.20;;;1.45;;
46014;SDS011;36844;51.898;-0.874;2023-07-31T08:38:51;3.38;;;2.08;;
46014;SDS011;36844;51.898;-0.874;2023-07-31T08:41:17;3.70;;;1.83;;
46014;SDS011;36844;51.898;-0.874;2023-07-31T08:43:42;3.47;;;1.40;;
46014;SDS011;36844;51.898;-0.874;2023-07-31T08:46:09;3.70;;;2.38;;
46014;SDS011;36844;51.898;-0.874;2023-07-31T08:48:35;2.17;;;1.67;;
46014;SDS011;36844;51.898;-0.874;2023-07-31T08:51:03;6.10;;;2.15;;
46014;SDS011;36844;51.898;-0.874;2023-07-31T08:53:28;3.67;;;1.83;;
46014;SDS011;36844;51.898;-0.874;2023-07-31T08:55:54;4.53;;;1.40;;
46014;SDS011;36844;51.898;-0.874;2023-07-31T08:58:21;3.42;;;1.70;;
46014;SDS011;36844;51.898;-0.874;2023-07-31T09:00:48;4.53;;;2.28;;
46014;SDS011;36844;51.898;-0.874;2023-07-31T09:03:17;3.38;;;1.50;;
46014;SDS011;36844;51.898;-0.874;2023-07-31T09:05:44;2.63;;;1.33;;
46014;SDS011;36844;51.898;-0.874;2023-07-31T09:08:12;2.47;;;1.50;;
46014;SDS011;36844;51.898;-0.874;2023-07-31T09:10:45;3.25;;;2.15;;
46014;SDS011;36844;51.898;-0.874;2023-07-31T09:13:11;3.47;;;1.80;;
46014;SDS011;36844;51.898;-0.874;2023-07-31T09:15:37;2.70;;;1.42;;
46014;SDS011;36844;51.898;-0.874;2023-07-31T09:18:03;4.78;;;1.67;;
46014;SDS011;36844;51.898;-0.874;2023-07-31T09:20:30;5.00;;;1.80;;
46014;SDS011;36844;51.898;-0.874;2023-07-31T09:22:56;6.50;;;2.17;;
46014;SDS011;36844;51.898;-0.874;2023-07-31T09:25:29;6.03;;;2.83;;
46014;SDS011;36844;51.898;-0.874;2023-07-31T09:27:59;7.22;;;2.25;;
46014;SDS011;36844;51.898;-0.874;2023-07-31T09:30:25;2.00;;;1.50;;
46014;SDS011;36844;51.898;-0.874;2023-07-31T09:32:52;6.35;;;1.80;;
46014;SDS011;36844;51.898;-0.874;2023-07-31T09:35:29;12.43;;;2.55;;
46014;SDS011;36844;51.898;-0.874;2023-07-31T09:38:00;4.38;;;2.13;;
46014;SDS011;36844;51.898;-0.874;2023-07-31T09:40:38;3.22;;;1.17;;
46014;SDS011;36844;51.898;-0.874;2023-07-31T09:43:09;4.05;;;1.90;;
46014;SDS011;36844;51.898;-0.874;2023-07-31T09:45:37;4.13;;;1.27;;
46014;SDS011;36844;51.898;-0.874;2023-07-31T09:48:07;5.10;;;2.20;;
46014;SDS011;36844;51.898;-0.874;2023-07-31T09:50:41;2.25;;;1.60;;
46014;SDS011;36844;51.898;-0.874;2023-07-31T09:53:08;2.53;;;1.60;;
46014;SDS011;36844;51.898;-0.874;2023-07-31T09:55:34;1.63;;;1.23;;
46014;SDS011;36844;51.898;-0.874;2023-07-31T09:58:03;2.88;;;1.33;;
46014;SDS011;36844;51.898;-0.874;2023-07-31T10:00:30;3.97;;;1.50;;
46014;SDS011;36844;51.898;-0.874;2023-07-31T10:02:58;2.67;;;1.73;;
46014;SDS011;36844;51.898;-0.874;2023-07-31T10:05:27;3.92;;;1.98;;
46014;SDS011;36844;51.898;-0.874;2023-07-31T10:08:01;2.65;;;1.55;;
46014;SDS011;36844;51.898;-0.874;2023-07-31T10:10:28;2.50;;;1.55;;
46014;SDS011;36844;51.898;-0.874;2023-07-31T10:12:54;2.63;;;1.30;;
46014;SDS011;36844;51.898;-0.874;2023-07-31T10:15:21;5.28;;;1.50;;
46014;SDS011;36844;51.898;-0.874;2023-07-31T10:17:47;3.85;;;1.67;;
46014;SDS011;36844;51.898;-0.874;2023-07-31T10:20:14;4.45;;;2.08;;
46014;SDS011;36844;51.898;-0.874;2023-07-31T10:22:44;2.47;;;1.30;;
46014;SDS011;36844;51.898;-0.874;2023-07-31T10:25:12;2.28;;;1.38;;
46014;SDS011;36844;51.898;-0.874;2023-07-31T10:27:40;2.80;;;1.60;;
46014;SDS011;36844;51.898;-0.874;2023-07-31T10:30:11;2.85;;;1.52;;
46014;SDS011;36844;51.898;-0.874;2023-07-31T10:32:38;3.47;;;1.88;;
46014;SDS011;36844;51.898;-0.874;2023-07-31T10:35:06;4.55;;;1.38;;
46014;SDS011;36844;51.898;-0.874;2023-07-31T10:37:39;2.78;;;1.60;;
46014;SDS011;36844;51.898;-0.874;2023-07-31T10:40:11;4.78;;;1.75;;
46014;SDS011;36844;51.898;-0.874;2023-07-31T10:42:44;3.20;;;1.40;;
46014;SDS011;36844;51.898;-0.874;2023-07-31T10:45:12;3.13;;;1.52;;
46014;SDS011;36844;51.898;-0.874;2023-07-31T10:47:39;4.10;;;1.63;;
46014;SDS011;36844;51.898;-0.874;2023-07-31T10:50:21;9.25;;;1.67;;
46014;SDS011;36844;51.898;-0.874;2023-07-31T10:52:49;3.70;;;1.73;;
46014;SDS011;36844;51.898;-0.874;2023-07-31T10:57:55;3.53;;;2.13;;
46014;SDS011;36844;51.898;-0.874;2023-07-31T11:00:28;2.30;;;1.50;;
46014;SDS011;36844;51.898;-0.874;2023-07-31T11:02:57;2.83;;;1.58;;
46014;SDS011;36844;51.898;-0.874;2023-07-31T11:08:26;4.68;;;1.98;;
46014;SDS011;36844;51.898;-0.874;2023-07-31T11:13:28;4.03;;;1.67;;
46014;SDS011;36844;51.898;-0.874;2023-07-31T11:15:54;3.78;;;1.92;;
46014;SDS011;36844;51.898;-0.874;2023-07-31T11:18:20;5.72;;;1.67;;
46014;SDS011;36844;51.898;-0.874;2023-07-31T11:20:45;5.07;;;1.83;;
46014;SDS011;36844;51.898;-0.874;2023-07-31T11:23:10;3.85;;;1.90;;
46014;SDS011;36844;51.898;-0.874;2023-07-31T11:25:37;3.35;;;1.50;;
46014;SDS011;36844;51.898;-0.874;2023-07-31T11:28:07;4.65;;;1.80;;
46014;SDS011;36844;51.898;-0.874;2023-07-31T11:30:34;2.67;;;1.42;;
46014;SDS011;36844;51.898;-0.874;2023-07-31T11:33:01;3.58;;;1.50;;
46014;SDS011;36844;51.898;-0.874;2023-07-31T11:35:34;4.97;;;2.05;;
46014;SDS011;36844;51.898;-0.874;2023-07-31T11:38:01;4.55;;;2.00;;
46014;SDS011;36844;51.898;-0.874;2023-07-31T11:40:28;5.65;;;2.13;;
46014;SDS011;36844;51.898;-0.874;2023-07-31T11:42:57;3.95;;;2.03;;
46014;SDS011;36844;51.898;-0.874;2023-07-31T11:45:24;2.97;;;1.80;;
46014;SDS011;36844;51.898;-0.874;2023-07-31T11:47:55;8.00;;;2.38;;
46014;SDS011;36844;51.898;-0.874;2023-07-31T11:50:21;4.82;;;2.15;;
46014;SDS011;36844;51.898;-0.874;2023-07-31T11:52:47;4.35;;;1.70;;
46014;SDS011;36844;51.898;-0.874;2023-07-31T11:55:16;4.82;;;1.77;;
46014;SDS011;36844;51.898;-0.874;2023-07-31T11:57:42;5.80;;;2.60;;
46014;SDS011;36844;51.898;-0.874;2023-07-31T12:00:10;5.20;;;2.40;;
46014;SDS011;36844;51.898;-0.874;2023-07-31T12:02:38;5.90;;;2.30;;
46014;SDS011;36844;51.898;-0.874;2023-07-31T12:05:05;3.63;;;2.17;;
46014;SDS011;36844;51.898;-0.874;2023-07-31T12:07:54;3.95;;;1.95;;
46014;SDS011;36844;51.898;-0.874;2023-07-31T12:10:32;5.93;;;2.20;;
46014;SDS011;36844;51.898;-0.874;2023-07-31T12:15:58;6.32;;;3.10;;
46014;SDS011;36844;51.898;-0.874;2023-07-31T12:18:28;5.03;;;2.22;;
46014;SDS011;36844;51.898;-0.874;2023-07-31T12:20:55;5.15;;;1.95;;
46014;SDS011;36844;51.898;-0.874;2023-07-31T12:23:29;6.53;;;2.45;;
46014;SDS011;36844;51.898;-0.874;2023-07-31T12:28:39;7.43;;;2.42;;
46014;SDS011;36844;51.898;-0.874;2023-07-31T12:31:08;5.63;;;2.40;;
46014;SDS011;36844;51.898;-0.874;2023-07-31T12:33:35;5.97;;;2.75;;
46014;SDS011;36844;51.898;-0.874;2023-07-31T12:36:03;7.15;;;3.17;;
46014;SDS011;36844;51.898;-0.874;2023-07-31T12:38:31;4.07;;;2.17;;
46014;SDS011;36844;51.898;-0.874;2023-07-31T12:40:57;3.10;;;1.85;;
46014;SDS011;36844;51.898;-0.874;2023-07-31T12:43:22;6.47;;;2.30;;
46014;SDS011;36844;51.898;-0.874;2023-07-31T12:45:48;5.75;;;3.17;;
46014;SDS011;36844;51.898;-0.874;2023-07-31T12:48:14;5.03;;;2.17;;
46014;SDS011;36844;51.898;-0.874;2023-07-31T12:50:39;6.05;;;2.70;;
46014;SDS011;36844;51.898;-0.874;2023-07-31T12:53:05;8.43;;;3.50;;
46014;SDS011;36844;51.898;-0.874;2023-07-31T12:55:30;4.80;;;2.80;;
46014;SDS011;36844;51.898;-0.874;2023-07-31T12:57:56;5.35;;;2.53;;
46014;SDS011;36844;51.898;-0.874;2023-07-31T13:00:22;3.75;;;2.78;;
46014;SDS011;36844;51.898;-0.874;2023-07-31T13:02:47;4.78;;;2.58;;
46014;SDS011;36844;51.898;-0.874;2023-07-31T13:05:13;4.93;;;2.55;;
46014;SDS011;36844;51.898;-0.874;2023-07-31T13:07:38;5.25;;;2.55;;
46014;SDS011;36844;51.898;-0.874;2023-07-31T13:10:04;7.47;;;2.67;;
46014;SDS011;36844;51.898;-0.874;2023-07-31T13:12:31;4.43;;;2.47;;
46014;SDS011;36844;51.898;-0.874;2023-07-31T13:14:56;5.10;;;2.92;;
46014;SDS011;36844;51.898;-0.874;2023-07-31T13:17:21;4.88;;;2.60;;
46014;SDS011;36844;51.898;-0.874;2023-07-31T13:19:47;5.63;;;3.13;;
46014;SDS011;36844;51.898;-0.874;2023-07-31T13:22:12;6.07;;;3.03;;
46014;SDS011;36844;51.898;-0.874;2023-07-31T13:24:37;7.50;;;2.53;;
46014;SDS011;36844;51.898;-0.874;2023-07-31T13:27:03;6.70;;;3.50;;
46014;SDS011;36844;51.898;-0.874;2023-07-31T13:29:29;9.90;;;3.40;;
46014;SDS011;36844;51.898;-0.874;2023-07-31T13:31:55;8.27;;;3.08;;
46014;SDS011;36844;51.898;-0.874;2023-07-31T13:34:20;6.22;;;2.50;;
46014;SDS011;36844;51.898;-0.874;2023-07-31T13:36:46;7.00;;;2.65;;
46014;SDS011;36844;51.898;-0.874;2023-07-31T13:39:11;5.50;;;2.42;;
46014;SDS011;36844;51.898;-0.874;2023-07-31T13:41:36;9.88;;;3.78;;
46014;SDS011;36844;51.898;-0.874;2023-07-31T13:44:02;6.05;;;2.97;;
46014;SDS011;36844;51.898;-0.874;2023-07-31T13:46:27;5.35;;;2.78;;
46014;SDS011;36844;51.898;-0.874;2023-07-31T13:48:52;5.97;;;2.80;;
46014;SDS011;36844;51.898;-0.874;2023-07-31T13:51:20;5.72;;;2.90;;
46014;SDS011;36844;51.898;-0.874;2023-07-31T13:53:46;7.40;;;2.92;;
46014;SDS011;36844;51.898;-0.874;2023-07-31T13:56:11;5.32;;;2.60;;
46014;SDS011;36844;51.898;-0.874;2023-07-31T13:58:37;8.93;;;3.25;;
46014;SDS011;36844;51.898;-0.874;2023-07-31T14:01:02;6.32;;;3.00;;
46014;SDS011;36844;51.898;-0.874;2023-07-31T14:03:28;5.93;;;3.25;;
46014;SDS011;36844;51.898;-0.874;2023-07-31T14:05:53;4.22;;;2.45;;
46014;SDS011;36844;51.898;-0.874;2023-07-31T14:08:20;6.90;;;2.92;;
46014;SDS011;36844;51.898;-0.874;2023-07-31T14:10:46;5.00;;;2.60;;
46014;SDS011;36844;51.898;-0.874;2023-07-31T14:13:11;4.70;;;2.58;;
46014;SDS011;36844;51.898;-0.874;2023-07-31T14:15:36;4.00;;;2.70;;
46014;SDS011;36844;51.898;-0.874;2023-07-31T14:18:02;4.80;;;2.80;;
46014;SDS011;36844;51.898;-0.874;2023-07-31T14:20:27;5.78;;;3.25;;
46014;SDS011;36844;51.898;-0.874;2023-07-31T14:22:53;4.95;;;3.05;;
46014;SDS011;36844;51.898;-0.874;2023-07-31T14:25:18;6.97;;;4.15;;
46014;SDS011;36844;51.898;-0.874;2023-07-31T14:27:44;7.03;;;4.05;;
46014;SDS011;36844;51.898;-0.874;2023-07-31T14:30:09;6.88;;;3.70;;
46014;SDS011;36844;51.898;-0.874;2023-07-31T14:32:34;7.05;;;3.50;;
46014;SDS011;36844;51.898;-0.874;2023-07-31T14:35:02;6.20;;;2.80;;
46014;SDS011;36844;51.898;-0.874;2023-07-31T14:37:35;6.78;;;4.55;;
46014;SDS011;36844;51.898;-0.874;2023-07-31T14:40:02;6.05;;;3.53;;
46014;SDS011;36844;51.898;-0.874;2023-07-31T14:42:28;7.47;;;3.22;;
46014;SDS011;36844;51.898;-0.874;2023-07-31T14:44:53;8.13;;;3.78;;
46014;SDS011;36844;51.898;-0.874;2023-07-31T14:47:18;7.53;;;3.75;;
46014;SDS011;36844;51.898;-0.874;2023-07-31T14:49:44;5.85;;;3.17;;
46014;SDS011;36844;51.898;-0.874;2023-07-31T14:52:09;7.05;;;2.85;;